sensor_id;sensor_type;location;lat;lon;timestamp;pressure;altitude;pressure_sealevel;temperature;humidity
37634;BME280;32048;49.902;22.508;2023-02-28T00:01:13;99974.06;;;-5.32;100.00
37634;BME280;32048;49.902;22.508;2023-02-28T00:03:41;99969.69;;;-5.34;100.00
37634;BME280;32048;49.902;22.508;2023-02-28T00:06:08;99977.28;;;-5.39;100.00
37634;BME280;32048;49.902;22.508;2023-02-28T00:08:37;99980.63;;;-5.41;100.00
37634;BME280;32048;49.902;22.508;2023-02-28T00:11:06;99981.41;;;-5.44;100.00
37634;BME280;32048;49.902;22.508;2023-02-28T00:13:35;99985.72;;;-5.43;100.00
37634;BME280;32048;49.902;22.508;2023-02-28T00:16:06;99989.00;;;-5.47;100.00
37634;BME280;32048;49.902;22.508;2023-02-28T00:18:34;99994.13;;;-5.49;100.00
37634;BME280;32048;49.902;22.508;2023-02-28T00:21:01;99988.06;;;-5.51;100.00
37634;BME280;32048;49.902;22.508;2023-02-28T00:23:28;99993.09;;;-5.54;100.00
37634;BME280;32048;49.902;22.508;2023-02-28T00:25:55;99993.88;;;-5.56;100.00
37634;BME280;32048;49.902;22.508;2023-02-28T00:28:22;99996.50;;;-5.55;100.00
37634;BME280;32048;49.902;22.508;2023-02-28T00:30:50;99988.69;;;-5.58;100.00
37634;BME280;32048;49.902;22.508;2023-02-28T00:33:17;99985.19;;;-5.60;100.00
37634;BME280;32048;49.902;22.508;2023-02-28T00:35:44;99985.19;;;-5.60;100.00
37634;BME280;32048;49.902;22.508;2023-02-28T00:38:14;99984.31;;;-5.60;100.00
37634;BME280;32048;49.902;22.508;2023-02-28T00:40:41;99984.19;;;-5.64;100.00
37634;BME280;32048;49.902;22.508;2023-02-28T00:43:08;99985.03;;;-5.65;100.00
37634;BME280;32048;49.902;22.508;2023-02-28T00:45:35;99985.03;;;-5.65;100.00
37634;BME280;32048;49.902;22.508;2023-02-28T00:48:03;99988.47;;;-5.64;100.00
37634;BME280;32048;49.902;22.508;2023-02-28T00:50:30;99981.63;;;-5.64;100.00
37634;BME280;32048;49.902;22.508;2023-02-28T00:52:57;99985.03;;;-5.65;100.00
37634;BME280;32048;49.902;22.508;2023-02-28T00:55:24;99983.41;;;-5.62;100.00
37634;BME280;32048;49.902;22.508;2023-02-28T00:57:51;99979.91;;;-5.65;100.00
37634;BME280;32048;49.902;22.508;2023-02-28T01:00:19;99977.31;;;-5.65;100.00
37634;BME280;32048;49.902;22.508;2023-02-28T01:02:46;99976.34;;;-5.68;100.00
37634;BME280;32048;49.902;22.508;2023-02-28T01:05:13;99978.69;;;-5.74;100.00
37634;BME280;32048;49.902;22.508;2023-02-28T01:07:41;99977.75;;;-5.78;100.00
37634;BME280;32048;49.902;22.508;2023-02-28T01:10:08;99983.66;;;-5.80;100.00
37634;BME280;32048;49.902;22.508;2023-02-28T01:12:35;99981.91;;;-5.81;100.00
37634;BME280;32048;49.902;22.508;2023-02-28T01:15:03;99980.16;;;-5.82;100.00
37634;BME280;32048;49.902;22.508;2023-02-28T01:17:30;99979.19;;;-5.86;100.00
37634;BME280;32048;49.902;22.508;2023-02-28T01:19:57;99994.53;;;-5.88;100.00
37634;BME280;32048;49.902;22.508;2023-02-28T01:22:24;99993.69;;;-5.88;100.00
37634;BME280;32048;49.902;22.508;2023-02-28T01:24:52;99994.66;;;-5.85;100.00
37634;BME280;32048;49.902;22.508;2023-02-28T01:27:19;99997.34;;;-5.81;100.00
37634;BME280;32048;49.902;22.508;2023-02-28T01:29:46;100001.53;;;-5.85;100.00
37634;BME280;32048;49.902;22.508;2023-02-28T01:32:13;99997.97;;;-5.89;100.00
37634;BME280;32048;49.902;22.508;2023-02-28T01:34:40;100000.38;;;-5.93;100.00
37634;BME280;32048;49.902;22.508;2023-02-28T01:37:08;99998.56;;;-5.97;100.00
37634;BME280;32048;49.902;22.508;2023-02-28T01:39:35;100004.63;;;-5.95;100.00
37634;BME280;32048;49.902;22.508;2023-02-28T01:42:02;100005.47;;;-5.96;100.00
37634;BME280;32048;49.902;22.508;2023-02-28T01:44:58;100005.53;;;-5.93;100.00
37634;BME280;32048;49.902;22.508;2023-02-28T01:47:30;100019.31;;;-5.91;100.00
37634;BME280;32048;49.902;22.508;2023-02-28T01:49:58;100010.63;;;-5.95;100.00
37634;BME280;32048;49.902;22.508;2023-02-28T01:52:28;100013.13;;;-5.98;100.00
37634;BME280;32048;49.902;22.508;2023-02-28T01:54:57;100014.69;;;-6.01;100.00
37634;BME280;32048;49.902;22.508;2023-02-28T01:57:30;100011.91;;;-6.08;100.00
37634;BME280;32048;49.902;22.508;2023-02-28T02:00:10;100015.16;;;-6.13;100.00
37634;BME280;32048;49.902;22.508;2023-02-28T02:02:42;100017.56;;;-6.18;100.00
37634;BME280;32048;49.902;22.508;2023-02-28T02:05:14;100010.72;;;-6.17;100.00
37634;BME280;32048;49.902;22.508;2023-02-28T02:07:43;100002.94;;;-6.19;100.00
37634;BME280;32048;49.902;22.508;2023-02-28T02:10:48;100004.69;;;-6.18;100.00
37634;BME280;32048;49.902;22.508;2023-02-28T02:40:17;100000.16;;;-6.49;100.00
37634;BME280;32048;49.902;22.508;2023-02-28T02:43:07;99998.47;;;-6.49;100.00
37634;BME280;32048;49.902;22.508;2023-02-28T02:48:16;99990.66;;;-6.52;100.00
37634;BME280;32048;49.902;22.508;2023-02-28T02:51:07;99991.59;;;-6.50;100.00
37634;BME280;32048;49.902;22.508;2023-02-28T02:53:44;99988.78;;;-6.56;100.00
37634;BME280;32048;49.902;22.508;2023-02-28T02:56:15;99986.81;;;-6.63;100.00
37634;BME280;32048;49.902;22.508;2023-02-28T02:58:44;99986.59;;;-6.69;100.00
37634;BME280;32048;49.902;22.508;2023-02-28T03:01:17;99985.50;;;-6.76;100.00
37634;BME280;32048;49.902;22.508;2023-02-28T03:03:56;99988.72;;;-6.81;100.00
37634;BME280;32048;49.902;22.508;2023-02-28T03:06:25;99991.50;;;-6.75;100.00
37634;BME280;32048;49.902;22.508;2023-02-28T03:08:53;99992.56;;;-6.70;100.00
37634;BME280;32048;49.902;22.508;2023-02-28T03:11:20;99991.78;;;-6.67;100.00
37634;BME280;32048;49.902;22.508;2023-02-28T03:24:59;100004.47;;;-6.48;100.00
37634;BME280;32048;49.902;22.508;2023-02-28T03:27:30;100004.53;;;-6.46;100.00
37634;BME280;32048;49.902;22.508;2023-02-28T03:30:06;99999.47;;;-6.45;100.00
37634;BME280;32048;49.902;22.508;2023-02-28T03:35:36;100012.63;;;-6.36;100.00
37634;BME280;32048;49.902;22.508;2023-02-28T03:38:29;100010.28;;;-6.30;100.00
37634;BME280;32048;49.902;22.508;2023-02-28T03:41:10;100004.47;;;-6.24;100.00
37634;BME280;32048;49.902;22.508;2023-02-28T03:43:45;100004.69;;;-6.18;100.00
37634;BME280;32048;49.902;22.508;2023-02-28T03:46:18;100017.72;;;-6.13;100.00
37634;BME280;32048;49.902;22.508;2023-02-28T03:48:52;100009.31;;;-6.08;100.00
37634;BME280;32048;49.902;22.508;2023-02-28T03:51:23;100021.75;;;-5.96;100.00
37634;BME280;32048;49.902;22.508;2023-02-28T03:53:56;100024.53;;;-5.88;100.00
37634;BME280;32048;49.902;22.508;2023-02-28T03:56:34;100023.13;;;-5.80;100.00
37634;BME280;32048;49.902;22.508;2023-02-28T04:01:50;100009.84;;;-5.67;100.00
37634;BME280;32048;49.902;22.508;2023-02-28T04:04:18;100015.22;;;-5.59;100.00
37634;BME280;32048;49.902;22.508;2023-02-28T04:06:45;100008.66;;;-5.51;100.00
37634;BME280;32048;49.902;22.508;2023-02-28T04:09:17;100013.09;;;-5.45;100.00
37634;BME280;32048;49.902;22.508;2023-02-28T04:11:50;100017.59;;;-5.39;100.00
37634;BME280;32048;49.902;22.508;2023-02-28T04:14:22;100009.22;;;-5.32;100.00
37634;BME280;32048;49.902;22.508;2023-02-28T04:16:49;100018.88;;;-5.27;100.00
37634;BME280;32048;49.902;22.508;2023-02-28T04:19:18;100013.84;;;-5.22;100.00
37634;BME280;32048;49.902;22.508;2023-02-28T04:21:49;100013.09;;;-5.18;100.00
37634;BME280;32048;49.902;22.508;2023-02-28T04:24:22;100013.22;;;-5.15;100.00
37634;BME280;32048;49.902;22.508;2023-02-28T04:26:52;100015.78;;;-5.15;100.00
37634;BME280;32048;49.902;22.508;2023-02-28T04:29:25;100014.88;;;-5.17;100.00
37634;BME280;32048;49.902;22.508;2023-02-28T04:31:53;100011.50;;;-5.14;100.00
37634;BME280;32048;49.902;22.508;2023-02-28T04:34:21;100016.59;;;-5.16;100.00
37634;BME280;32048;49.902;22.508;2023-02-28T04:36:48;100011.31;;;-5.20;100.00
37634;BME280;32048;49.902;22.508;2023-02-28T04:39:37;100010.44;;;-5.21;100.00
37634;BME280;32048;49.902;22.508;2023-02-28T04:42:04;100015.50;;;-5.24;100.00
37634;BME280;32048;49.902;22.508;2023-02-28T04:44:32;100008.44;;;-5.31;100.00
37634;BME280;32048;49.902;22.508;2023-02-28T04:46:59;100015.16;;;-5.35;100.00
37634;BME280;32048;49.902;22.508;2023-02-28T04:49:26;100014.22;;;-5.37;100.00
37634;BME280;32048;49.902;22.508;2023-02-28T04:51:53;100015.81;;;-5.40;100.00
37634;BME280;32048;49.902;22.508;2023-02-28T04:54:20;100007.16;;;-5.44;100.00
37634;BME280;32048;49.902;22.508;2023-02-28T04:56:47;100011.28;;;-5.49;100.00
37634;BME280;32048;49.902;22.508;2023-02-28T04:59:17;100011.94;;;-5.55;100.00
37634;BME280;32048;49.902;22.508;2023-02-28T05:01:48;100028.06;;;-5.60;100.00
37634;BME280;32048;49.902;22.508;2023-02-28T05:04:16;100028.72;;;-5.66;100.00
37634;BME280;32048;49.902;22.508;2023-02-28T05:06:44;100032.00;;;-5.70;100.00
37634;BME280;32048;49.902;22.508;2023-02-28T05:09:12;100031.84;;;-5.75;100.00
37634;BME280;32048;49.902;22.508;2023-02-28T05:11:41;100033.41;;;-5.80;100.00
37634;BME280;32048;49.902;22.508;2023-02-28T05:14:13;100035.97;;;-5.80;100.00
37634;BME280;32048;49.902;22.508;2023-02-28T05:16:40;100039.63;;;-5.73;100.00
37634;BME280;32048;49.902;22.508;2023-02-28T05:19:08;100045.00;;;-5.67;100.00
37634;BME280;32048;49.902;22.508;2023-02-28T05:21:39;100043.50;;;-5.60;100.00
37634;BME280;32048;49.902;22.508;2023-02-28T05:24:09;100029.91;;;-5.56;100.00
37634;BME280;32048;49.902;22.508;2023-02-28T05:26:41;100041.97;;;-5.54;100.00
37634;BME280;32048;49.902;22.508;2023-02-28T05:29:09;100035.16;;;-5.53;100.00
37634;BME280;32048;49.902;22.508;2023-02-28T05:31:37;100030.03;;;-5.52;100.00
37634;BME280;32048;49.902;22.508;2023-02-28T05:34:04;100033.59;;;-5.48;100.00
37634;BME280;32048;49.902;22.508;2023-02-28T05:36:32;100034.53;;;-5.46;100.00
37634;BME280;32048;49.902;22.508;2023-02-28T05:38:59;100039.84;;;-5.41;100.00
37634;BME280;32048;49.902;22.508;2023-02-28T05:41:26;100034.88;;;-5.35;100.00
37634;BME280;32048;49.902;22.508;2023-02-28T05:43:54;100047.47;;;-5.17;100.00
37634;BME280;32048;49.902;22.508;2023-02-28T05:46:21;100051.69;;;-4.92;100.00
37634;BME280;32048;49.902;22.508;2023-02-28T05:48:49;100050.06;;;-4.60;100.00
37634;BME280;32048;49.902;22.508;2023-02-28T05:51:16;100058.91;;;-4.22;100.00
37634;BME280;32048;49.902;22.508;2023-02-28T05:53:44;100058.41;;;-3.78;100.00
37634;BME280;32048;49.902;22.508;2023-02-28T05:56:12;100053.16;;;-3.48;100.00
37634;BME280;32048;49.902;22.508;2023-02-28T05:58:39;100060.59;;;-3.25;100.00
37634;BME280;32048;49.902;22.508;2023-02-28T06:01:31;100061.00;;;-3.08;100.00
37634;BME280;32048;49.902;22.508;2023-02-28T06:04:00;100059.59;;;-2.96;100.00
37634;BME280;32048;49.902;22.508;2023-02-28T06:06:28;100063.31;;;-2.84;100.00
37634;BME280;32048;49.902;22.508;2023-02-28T06:08:56;100057.59;;;-2.69;100.00
37634;BME280;32048;49.902;22.508;2023-02-28T06:11:23;100074.59;;;-2.41;100.00
37634;BME280;32048;49.902;22.508;2023-02-28T06:13:56;100072.06;;;-1.97;100.00
37634;BME280;32048;49.902;22.508;2023-02-28T06:16:24;100074.28;;;-1.21;100.00
37634;BME280;32048;49.902;22.508;2023-02-28T06:18:52;100067.81;;;-0.32;100.00
37634;BME280;32048;49.902;22.508;2023-02-28T06:21:24;100070.53;;;0.52;100.00
37634;BME280;32048;49.902;22.508;2023-02-28T06:23:52;100077.22;;;1.29;100.00
37634;BME280;32048;49.902;22.508;2023-02-28T06:26:19;100084.56;;;1.98;100.00
37634;BME280;32048;49.902;22.508;2023-02-28T06:28:47;100088.22;;;2.54;100.00
37634;BME280;32048;49.902;22.508;2023-02-28T06:31:16;100101.25;;;2.75;100.00
37634;BME280;32048;49.902;22.508;2023-02-28T06:33:45;100104.72;;;2.54;100.00
37634;BME280;32048;49.902;22.508;2023-02-28T06:36:13;100114.16;;;2.14;97.04
37634;BME280;32048;49.902;22.508;2023-02-28T06:38:41;100116.38;;;1.41;89.86
37634;BME280;32048;49.902;22.508;2023-02-28T06:41:09;100117.56;;;0.79;94.17
37634;BME280;32048;49.902;22.508;2023-02-28T06:43:40;100112.00;;;0.43;97.23
37634;BME280;32048;49.902;22.508;2023-02-28T06:46:09;100113.50;;;0.20;100.00
37634;BME280;32048;49.902;22.508;2023-02-28T06:48:37;100120.91;;;-0.10;98.43
37634;BME280;32048;49.902;22.508;2023-02-28T06:51:09;100108.31;;;-0.45;99.79
37634;BME280;32048;49.902;22.508;2023-02-28T06:53:36;100111.22;;;-0.81;100.00
37634;BME280;32048;49.902;22.508;2023-02-28T06:56:05;100105.06;;;-0.90;100.00
37634;BME280;32048;49.902;22.508;2023-02-28T06:58:33;100109.38;;;-0.89;100.00
37634;BME280;32048;49.902;22.508;2023-02-28T07:01:01;100099.94;;;-0.85;100.00
37634;BME280;32048;49.902;22.508;2023-02-28T07:03:29;100099.53;;;-0.55;100.00
37634;BME280;32048;49.902;22.508;2023-02-28T07:05:59;100098.28;;;-0.19;100.00
37634;BME280;32048;49.902;22.508;2023-02-28T07:08:27;100104.50;;;-0.06;100.00
37634;BME280;32048;49.902;22.508;2023-02-28T07:10:54;100107.09;;;-0.08;98.74
37634;BME280;32048;49.902;22.508;2023-02-28T07:13:22;100099.91;;;-0.27;97.21
37634;BME280;32048;49.902;22.508;2023-02-28T07:16:01;100111.16;;;-0.28;98.64
37634;BME280;32048;49.902;22.508;2023-02-28T07:18:28;100108.78;;;-0.10;100.00
37634;BME280;32048;49.902;22.508;2023-02-28T07:20:55;100115.59;;;-0.19;97.62
37634;BME280;32048;49.902;22.508;2023-02-28T07:23:23;100120.72;;;-0.23;97.54
37634;BME280;32048;49.902;22.508;2023-02-28T07:25:51;100115.78;;;-0.04;97.31
37634;BME280;32048;49.902;22.508;2023-02-28T07:28:18;100118.69;;;0.22;98.88
37634;BME280;32048;49.902;22.508;2023-02-28T07:30:45;100112.09;;;0.53;97.13
37634;BME280;32048;49.902;22.508;2023-02-28T07:33:13;100117.44;;;0.66;92.45
37634;BME280;32048;49.902;22.508;2023-02-28T07:35:40;100115.97;;;0.92;94.35
37634;BME280;32048;49.902;22.508;2023-02-28T07:38:08;100120.25;;;0.87;87.46
37634;BME280;32048;49.902;22.508;2023-02-28T07:40:35;100112.66;;;1.12;90.35
37634;BME280;32048;49.902;22.508;2023-02-28T07:43:03;100109.66;;;1.83;95.68
37634;BME280;32048;49.902;22.508;2023-02-28T07:45:30;100115.19;;;2.74;88.85
37634;BME280;32048;49.902;22.508;2023-02-28T07:48:01;100110.88;;;3.19;80.33
37634;BME280;32048;49.902;22.508;2023-02-28T07:50:28;100118.69;;;3.45;79.99
37634;BME280;32048;49.902;22.508;2023-02-28T07:52:59;100116.91;;;3.53;73.20
37634;BME280;32048;49.902;22.508;2023-02-28T07:55:26;100115.19;;;3.48;72.73
37634;BME280;32048;49.902;22.508;2023-02-28T07:57:54;100126.53;;;3.33;74.08
37634;BME280;32048;49.902;22.508;2023-02-28T08:00:21;100119.56;;;3.24;71.70
37634;BME280;32048;49.902;22.508;2023-02-28T08:02:49;100125.63;;;2.79;70.46
37634;BME280;32048;49.902;22.508;2023-02-28T08:05:16;100129.03;;;2.45;66.99
37634;BME280;32048;49.902;22.508;2023-02-28T08:07:49;100126.28;;;2.15;70.35
37634;BME280;32048;49.902;22.508;2023-02-28T08:10:16;100124.50;;;2.01;72.01
37634;BME280;32048;49.902;22.508;2023-02-28T08:12:43;100135.72;;;1.86;72.54
37634;BME280;32048;49.902;22.508;2023-02-28T08:15:10;100126.94;;;1.69;77.00
37634;BME280;32048;49.902;22.508;2023-02-28T08:17:37;100125.31;;;1.90;78.66
37634;BME280;32048;49.902;22.508;2023-02-28T08:20:05;100115.09;;;2.36;77.00
37634;BME280;32048;49.902;22.508;2023-02-28T08:22:32;100134.28;;;2.65;70.23
37634;BME280;32048;49.902;22.508;2023-02-28T08:24:59;100142.03;;;2.44;68.95
37634;BME280;32048;49.902;22.508;2023-02-28T08:27:26;100144.47;;;1.98;70.95
37634;BME280;32048;49.902;22.508;2023-02-28T08:29:53;100138.84;;;1.33;72.98
37634;BME280;32048;49.902;22.508;2023-02-28T08:32:21;100146.41;;;1.04;75.60
37634;BME280;32048;49.902;22.508;2023-02-28T08:34:56;100145.47;;;0.97;80.41
37634;BME280;32048;49.902;22.508;2023-02-28T08:37:24;100144.50;;;0.86;79.24
37634;BME280;32048;49.902;22.508;2023-02-28T08:39:51;100141.78;;;0.74;78.70
37634;BME280;32048;49.902;22.508;2023-02-28T08:42:22;100141.81;;;0.75;80.12
37634;BME280;32048;49.902;22.508;2023-02-28T08:44:49;100141.81;;;0.77;79.06
37634;BME280;32048;49.902;22.508;2023-02-28T08:47:16;100149.59;;;0.75;81.02
37634;BME280;32048;49.902;22.508;2023-02-28T08:49:43;100134.69;;;0.57;78.66
37634;BME280;32048;49.902;22.508;2023-02-28T08:52:10;100130.00;;;0.26;80.10
37634;BME280;32048;49.902;22.508;2023-02-28T08:54:37;100135.84;;;0.08;82.51
37634;BME280;32048;49.902;22.508;2023-02-28T08:57:05;100137.63;;;0.13;83.87
37634;BME280;32048;49.902;22.508;2023-02-28T08:59:32;100140.94;;;-0.02;83.39
37634;BME280;32048;49.902;22.508;2023-02-28T09:01:59;100122.03;;;0.10;84.27
37634;BME280;32048;49.902;22.508;2023-02-28T09:04:26;100124.84;;;0.27;80.96
37634;BME280;32048;49.902;22.508;2023-02-28T09:06:53;100124.16;;;0.45;81.83
37634;BME280;32048;49.902;22.508;2023-02-28T09:09:20;100126.06;;;0.58;77.70
37634;BME280;32048;49.902;22.508;2023-02-28T09:11:47;100132.00;;;0.50;76.31
37634;BME280;32048;49.902;22.508;2023-02-28T09:14:14;100129.91;;;0.16;77.58
37634;BME280;32048;49.902;22.508;2023-02-28T09:16:41;100132.38;;;0.07;81.01
37634;BME280;32048;49.902;22.508;2023-02-28T09:19:11;100120.44;;;0.23;80.27
37634;BME280;32048;49.902;22.508;2023-02-28T09:21:39;100125.81;;;0.40;78.55
37634;BME280;32048;49.902;22.508;2023-02-28T09:24:06;100119.75;;;0.36;77.90
37634;BME280;32048;49.902;22.508;2023-02-28T09:26:34;100122.28;;;0.32;77.33
37634;BME280;32048;49.902;22.508;2023-02-28T09:29:12;100124.06;;;0.37;78.30
37634;BME280;32048;49.902;22.508;2023-02-28T09:31:41;100125.03;;;0.46;76.77
37634;BME280;32048;49.902;22.508;2023-02-28T09:34:08;100121.63;;;0.50;76.80
37634;BME280;32048;49.902;22.508;2023-02-28T09:36:35;100131.13;;;0.49;77.86
37634;BME280;32048;49.902;22.508;2023-02-28T09:39:12;100134.72;;;0.62;79.40
37634;BME280;32048;49.902;22.508;2023-02-28T09:41:48;100133.03;;;0.66;78.09
37634;BME280;32048;49.902;22.508;2023-02-28T09:44:37;100127.88;;;0.69;77.89
37634;BME280;32048;49.902;22.508;2023-02-28T09:47:18;100126.88;;;0.54;77.32
37634;BME280;32048;49.902;22.508;2023-02-28T09:49:50;100130.34;;;0.56;80.05
37634;BME280;32048;49.902;22.508;2023-02-28T09:52:24;100135.69;;;0.72;80.88
37634;BME280;32048;49.902;22.508;2023-02-28T09:54:54;100138.31;;;0.73;78.35
37634;BME280;32048;49.902;22.508;2023-02-28T09:57:32;100139.97;;;0.67;79.26
37634;BME280;32048;49.902;22.508;2023-02-28T10:00:05;100139.94;;;0.62;77.58
37634;BME280;32048;49.902;22.508;2023-02-28T10:03:05;100140.63;;;0.46;74.71
37634;BME280;32048;49.902;22.508;2023-02-28T10:05:37;100128.44;;;0.38;77.75
37634;BME280;32048;49.902;22.508;2023-02-28T10:08:24;100132.75;;;0.39;77.36
37634;BME280;32048;49.902;22.508;2023-02-28T10:10:56;100125.09;;;0.50;78.75
37634;BME280;32048;49.902;22.508;2023-02-28T10:13:34;100133.03;;;0.66;76.86
37634;BME280;32048;49.902;22.508;2023-02-28T10:16:13;100123.56;;;0.71;76.29
37634;BME280;32048;49.902;22.508;2023-02-28T10:21:46;100123.31;;;0.49;75.02
37634;BME280;32048;49.902;22.508;2023-02-28T10:27:16;100110.44;;;0.58;78.58
37634;BME280;32048;49.902;22.508;2023-02-28T10:29:47;100107.22;;;0.87;76.13
37634;BME280;32048;49.902;22.508;2023-02-28T10:32:17;100109.16;;;1.07;74.17
37634;BME280;32048;49.902;22.508;2023-02-28T10:35:01;100105.81;;;1.24;73.70
37634;BME280;32048;49.902;22.508;2023-02-28T10:37:33;100101.63;;;1.45;75.45
37634;BME280;32048;49.902;22.508;2023-02-28T10:40:07;100106.13;;;1.72;74.03
37634;BME280;32048;49.902;22.508;2023-02-28T10:45:33;100095.03;;;2.16;68.02
37634;BME280;32048;49.902;22.508;2023-02-28T10:55:43;100081.03;;;1.93;69.36
37634;BME280;32048;49.902;22.508;2023-02-28T10:58:24;100081.91;;;1.89;70.53
37634;BME280;32048;49.902;22.508;2023-02-28T11:00:52;100084.47;;;1.85;66.94
37634;BME280;32048;49.902;22.508;2023-02-28T11:03:31;100084.53;;;1.93;71.11
37634;BME280;32048;49.902;22.508;2023-02-28T11:06:06;100079.41;;;2.19;71.43
37634;BME280;32048;49.902;22.508;2023-02-28T11:08:33;100076.84;;;2.33;69.91
37634;BME280;32048;49.902;22.508;2023-02-28T11:11:04;100070.81;;;2.54;68.76
37634;BME280;32048;49.902;22.508;2023-02-28T11:13:35;100069.06;;;2.53;66.05
37634;BME280;32048;49.902;22.508;2023-02-28T11:16:07;100071.69;;;2.64;67.86
37634;BME280;32048;49.902;22.508;2023-02-28T11:18:55;100065.59;;;2.76;68.10
37634;BME280;32048;49.902;22.508;2023-02-28T11:21:26;100068.22;;;2.82;65.75
37634;BME280;32048;49.902;22.508;2023-02-28T11:24:14;100060.41;;;2.94;65.33
37634;BME280;32048;49.902;22.508;2023-02-28T11:26:46;100075.19;;;2.89;64.79
37634;BME280;32048;49.902;22.508;2023-02-28T11:34:36;100060.25;;;2.08;69.61
37634;BME280;32048;49.902;22.508;2023-02-28T11:37:10;100055.97;;;2.18;72.38
37634;BME280;32048;49.902;22.508;2023-02-28T11:39:38;100056.88;;;2.41;72.13
37634;BME280;32048;49.902;22.508;2023-02-28T11:53:35;100066.47;;;2.42;66.97
37634;BME280;32048;49.902;22.508;2023-02-28T11:56:29;100073.38;;;2.29;71.58
37634;BME280;32048;49.902;22.508;2023-02-28T12:01:36;100068.19;;;2.49;72.43
37634;BME280;32048;49.902;22.508;2023-02-28T12:04:24;100058.69;;;2.67;71.19
37634;BME280;32048;49.902;22.508;2023-02-28T12:07:19;100056.06;;;2.79;67.45
37634;BME280;32048;49.902;22.508;2023-02-28T12:10:04;100056.06;;;2.70;69.23
37634;BME280;32048;49.902;22.508;2023-02-28T12:12:49;100057.75;;;2.40;67.07
37634;BME280;32048;49.902;22.508;2023-02-28T12:23:32;100062.66;;;1.63;73.81
37634;BME280;32048;49.902;22.508;2023-02-28T12:26:23;100059.22;;;1.64;75.05
37634;BME280;32048;49.902;22.508;2023-02-28T12:28:59;100052.28;;;1.70;75.39
37634;BME280;32048;49.902;22.508;2023-02-28T12:31:36;100054.00;;;1.64;72.86
37634;BME280;32048;49.902;22.508;2023-02-28T12:34:13;100051.38;;;1.63;75.70
37634;BME280;32048;49.902;22.508;2023-02-28T12:36:43;100050.56;;;1.72;76.39
37634;BME280;32048;49.902;22.508;2023-02-28T12:39:18;100052.34;;;1.77;73.28
37634;BME280;32048;49.902;22.508;2023-02-28T12:42:05;100041.81;;;1.59;72.62
37634;BME280;32048;49.902;22.508;2023-02-28T12:44:45;100047.84;;;1.50;73.45
37634;BME280;32048;49.902;22.508;2023-02-28T12:47:16;100044.34;;;1.42;75.90
37634;BME280;32048;49.902;22.508;2023-02-28T12:49:52;100040.91;;;1.52;77.01
37634;BME280;32048;49.902;22.508;2023-02-28T13:00:36;100027.88;;;1.48;76.58
37634;BME280;32048;49.902;22.508;2023-02-28T13:06:17;100027.78;;;1.29;75.63
37634;BME280;32048;49.902;22.508;2023-02-28T13:09:20;100026.78;;;1.09;75.70
37634;BME280;32048;49.902;22.508;2023-02-28T13:11:52;100023.25;;;1.00;76.62
37634;BME280;32048;49.902;22.508;2023-02-28T13:14:35;100020.63;;;0.94;77.86
37634;BME280;32048;49.902;22.508;2023-02-28T13:20:00;100012.88;;;1.03;78.19
37634;BME280;32048;49.902;22.508;2023-02-28T13:24:54;100001.81;;;1.43;79.19
37634;BME280;32048;49.902;22.508;2023-02-28T13:29:52;99997.47;;;1.40;77.04
37634;BME280;32048;49.902;22.508;2023-02-28T13:32:28;99994.78;;;1.25;77.22
37634;BME280;32048;49.902;22.508;2023-02-28T13:39:57;99997.41;;;1.25;79.57
37634;BME280;32048;49.902;22.508;2023-02-28T13:47:41;99988.88;;;1.57;77.22
37634;BME280;32048;49.902;22.508;2023-02-28T14:06:38;99984.41;;;1.23;79.07
37634;BME280;32048;49.902;22.508;2023-02-28T14:09:21;99985.25;;;1.24;78.38
37634;BME280;32048;49.902;22.508;2023-02-28T14:11:50;99980.88;;;1.15;78.29
37634;BME280;32048;49.902;22.508;2023-02-28T14:17:05;99978.38;;;1.34;80.72
37634;BME280;32048;49.902;22.508;2023-02-28T14:19:36;99969.72;;;1.45;79.67
37634;BME280;32048;49.902;22.508;2023-02-28T14:22:32;99972.34;;;1.50;78.15
37634;BME280;32048;49.902;22.508;2023-02-28T14:25:20;99974.13;;;1.54;78.68
37634;BME280;32048;49.902;22.508;2023-02-28T14:31:09;99972.44;;;1.64;78.20
37634;BME280;32048;49.902;22.508;2023-02-28T14:36:25;99969.81;;;1.61;78.83
37634;BME280;32048;49.902;22.508;2023-02-28T14:38:57;99965.50;;;1.66;79.10
37634;BME280;32048;49.902;22.508;2023-02-28T14:41:36;99964.63;;;1.70;79.28
37634;BME280;32048;49.902;22.508;2023-02-28T14:44:23;99967.22;;;1.67;78.04
37634;BME280;32048;49.902;22.508;2023-02-28T14:46:53;99962.88;;;1.63;78.26
37634;BME280;32048;49.902;22.508;2023-02-28T14:49:26;99963.72;;;1.57;78.64
37634;BME280;32048;49.902;22.508;2023-02-28T14:52:07;99965.44;;;1.51;77.33
37634;BME280;32048;49.902;22.508;2023-02-28T14:54:40;99961.03;;;1.37;77.66
37634;BME280;32048;49.902;22.508;2023-02-28T14:57:30;99968.84;;;1.33;79.11
37634;BME280;32048;49.902;22.508;2023-02-28T15:00:14;99965.28;;;1.23;79.91
37634;BME280;32048;49.902;22.508;2023-02-28T15:02:43;99965.25;;;1.15;81.06
37634;BME280;32048;49.902;22.508;2023-02-28T15:07:43;99960.81;;;0.96;81.88
37634;BME280;32048;49.902;22.508;2023-02-28T15:10:18;99967.69;;;0.89;82.86
37634;BME280;32048;49.902;22.508;2023-02-28T15:15:20;99964.25;;;0.92;84.43
37634;BME280;32048;49.902;22.508;2023-02-28T15:18:03;99967.69;;;0.89;83.32
37634;BME280;32048;49.902;22.508;2023-02-28T15:20:33;99965.94;;;0.85;83.76
37634;BME280;32048;49.902;22.508;2023-02-28T15:23:01;99951.16;;;0.79;84.31
37634;BME280;32048;49.902;22.508;2023-02-28T15:25:29;99956.34;;;0.78;85.41
37634;BME280;32048;49.902;22.508;2023-02-28T15:27:57;99952.03;;;0.80;85.60
37634;BME280;32048;49.902;22.508;2023-02-28T15:30:29;99952.91;;;0.79;85.30
37634;BME280;32048;49.902;22.508;2023-02-28T15:35:46;99948.56;;;0.78;86.03
37634;BME280;32048;49.902;22.508;2023-02-28T15:38:17;99947.72;;;0.79;86.41